sensor_id;sensor_type;location;lat;lon;timestamp;temperature;humidity
80695;DHT22;70059;42.702;23.312;2024-02-26T00:01:56;11.10;68.30
80695;DHT22;70059;42.702;23.312;2024-02-26T00:04:21;11.10;69.30
80695;DHT22;70059;42.702;23.312;2024-02-26T00:06:47;11.10;68.90
80695;DHT22;70059;42.702;23.312;2024-02-26T00:09:15;11.20;68.70
80695;DHT22;70059;42.702;23.312;2024-02-26T00:11:41;11.30;67.70
80695;DHT22;70059;42.702;23.312;2024-02-26T00:14:07;11.30;68.20
80695;DHT22;70059;42.702;23.312;2024-02-26T00:16:32;11.30;67.30
80695;DHT22;70059;42.702;23.312;2024-02-26T00:18:58;11.30;68.20
80695;DHT22;70059;42.702;23.312;2024-02-26T00:21:24;11.30;67.70
80695;DHT22;70059;42.702;23.312;2024-02-26T00:23:50;11.30;67.40
80695;DHT22;70059;42.702;23.312;2024-02-26T00:26:16;11.30;67.60
80695;DHT22;70059;42.702;23.312;2024-02-26T00:28:42;11.20;68.10
80695;DHT22;70059;42.702;23.312;2024-02-26T00:31:07;11.30;68.30
80695;DHT22;70059;42.702;23.312;2024-02-26T00:33:33;11.40;67.30
80695;DHT22;70059;42.702;23.312;2024-02-26T00:35:58;11.40;66.90
80695;DHT22;70059;42.702;23.312;2024-02-26T00:38:24;11.50;68.20
80695;DHT22;70059;42.702;23.312;2024-02-26T00:40:50;11.50;67.00
80695;DHT22;70059;42.702;23.312;2024-02-26T00:43:15;11.50;66.70
80695;DHT22;70059;42.702;23.312;2024-02-26T00:45:41;11.50;67.00
80695;DHT22;70059;42.702;23.312;2024-02-26T00:48:07;11.50;66.80
80695;DHT22;70059;42.702;23.312;2024-02-26T00:50:36;11.60;66.30
80695;DHT22;70059;42.702;23.312;2024-02-26T00:53:02;11.80;65.40
80695;DHT22;70059;42.702;23.312;2024-02-26T00:55:30;11.80;65.30
80695;DHT22;70059;42.702;23.312;2024-02-26T00:57:56;11.80;65.10
80695;DHT22;70059;42.702;23.312;2024-02-26T01:00:22;11.80;65.30
80695;DHT22;70059;42.702;23.312;2024-02-26T01:02:48;11.70;65.70
80695;DHT22;70059;42.702;23.312;2024-02-26T01:05:14;11.70;65.80
80695;DHT22;70059;42.702;23.312;2024-02-26T01:07:42;11.80;66.00
80695;DHT22;70059;42.702;23.312;2024-02-26T01:10:07;11.80;65.40
80695;DHT22;70059;42.702;23.312;2024-02-26T01:12:34;11.90;64.60
80695;DHT22;70059;42.702;23.312;2024-02-26T01:15:01;11.90;64.80
80695;DHT22;70059;42.702;23.312;2024-02-26T01:17:27;12.00;64.70
80695;DHT22;70059;42.702;23.312;2024-02-26T01:19:53;12.10;64.50
80695;DHT22;70059;42.702;23.312;2024-02-26T01:22:19;12.00;64.50
80695;DHT22;70059;42.702;23.312;2024-02-26T01:24:45;11.80;65.30
80695;DHT22;70059;42.702;23.312;2024-02-26T01:27:11;11.70;65.40
80695;DHT22;70059;42.702;23.312;2024-02-26T01:29:37;11.90;65.00
80695;DHT22;70059;42.702;23.312;2024-02-26T01:32:03;12.00;64.60
80695;DHT22;70059;42.702;23.312;2024-02-26T01:34:30;12.00;64.30
80695;DHT22;70059;42.702;23.312;2024-02-26T01:36:56;12.00;63.90
80695;DHT22;70059;42.702;23.312;2024-02-26T01:39:21;12.10;64.90
80695;DHT22;70059;42.702;23.312;2024-02-26T01:41:48;12.10;63.80
80695;DHT22;70059;42.702;23.312;2024-02-26T01:44:13;12.00;63.90
80695;DHT22;70059;42.702;23.312;2024-02-26T01:46:39;12.00;63.90
80695;DHT22;70059;42.702;23.312;2024-02-26T01:49:06;12.10;63.70
80695;DHT22;70059;42.702;23.312;2024-02-26T01:51:33;12.10;63.50
80695;DHT22;70059;42.702;23.312;2024-02-26T01:54:01;12.00;63.80
80695;DHT22;70059;42.702;23.312;2024-02-26T01:56:28;12.00;63.60
80695;DHT22;70059;42.702;23.312;2024-02-26T01:58:57;11.90;64.50
80695;DHT22;70059;42.702;23.312;2024-02-26T02:01:25;11.90;64.70
80695;DHT22;70059;42.702;23.312;2024-02-26T02:03:53;12.10;64.00
80695;DHT22;70059;42.702;23.312;2024-02-26T02:06:20;12.10;63.80
80695;DHT22;70059;42.702;23.312;2024-02-26T02:08:46;12.10;64.00
80695;DHT22;70059;42.702;23.312;2024-02-26T02:11:12;12.10;63.50
80695;DHT22;70059;42.702;23.312;2024-02-26T02:13:38;12.00;63.80
80695;DHT22;70059;42.702;23.312;2024-02-26T02:16:04;11.90;64.40
80695;DHT22;70059;42.702;23.312;2024-02-26T02:18:30;11.70;65.30
80695;DHT22;70059;42.702;23.312;2024-02-26T02:20:55;11.70;64.90
80695;DHT22;70059;42.702;23.312;2024-02-26T02:23:24;11.70;65.70
80695;DHT22;70059;42.702;23.312;2024-02-26T02:25:50;11.90;64.20
80695;DHT22;70059;42.702;23.312;2024-02-26T02:28:16;11.90;64.40
80695;DHT22;70059;42.702;23.312;2024-02-26T02:30:42;11.80;64.50
80695;DHT22;70059;42.702;23.312;2024-02-26T02:33:07;11.60;64.90
80695;DHT22;70059;42.702;23.312;2024-02-26T02:35:33;11.40;66.40
80695;DHT22;70059;42.702;23.312;2024-02-26T02:37:58;11.40;67.30
80695;DHT22;70059;42.702;23.312;2024-02-26T02:40:24;11.30;67.40
80695;DHT22;70059;42.702;23.312;2024-02-26T02:42:50;11.40;67.00
80695;DHT22;70059;42.702;23.312;2024-02-26T02:45:15;11.50;66.70
80695;DHT22;70059;42.702;23.312;2024-02-26T02:47:41;11.50;66.50
80695;DHT22;70059;42.702;23.312;2024-02-26T02:50:07;11.60;65.80
80695;DHT22;70059;42.702;23.312;2024-02-26T02:52:33;11.70;65.70
80695;DHT22;70059;42.702;23.312;2024-02-26T02:54:58;11.70;65.70
80695;DHT22;70059;42.702;23.312;2024-02-26T02:57:24;11.70;65.50
80695;DHT22;70059;42.702;23.312;2024-02-26T02:59:50;11.80;64.90
80695;DHT22;70059;42.702;23.312;2024-02-26T03:02:16;11.80;65.10
80695;DHT22;70059;42.702;23.312;2024-02-26T03:04:41;11.70;65.40
80695;DHT22;70059;42.702;23.312;2024-02-26T03:07:07;11.80;65.40
80695;DHT22;70059;42.702;23.312;2024-02-26T03:09:32;11.80;65.10
80695;DHT22;70059;42.702;23.312;2024-02-26T03:11:58;11.80;64.70
80695;DHT22;70059;42.702;23.312;2024-02-26T03:14:24;11.90;64.40
80695;DHT22;70059;42.702;23.312;2024-02-26T03:16:54;11.90;64.60
80695;DHT22;70059;42.702;23.312;2024-02-26T03:19:19;11.90;65.00
80695;DHT22;70059;42.702;23.312;2024-02-26T03:21:45;11.80;64.90
80695;DHT22;70059;42.702;23.312;2024-02-26T03:24:11;11.90;65.10
80695;DHT22;70059;42.702;23.312;2024-02-26T03:26:37;12.00;64.50
80695;DHT22;70059;42.702;23.312;2024-02-26T03:29:04;12.00;64.30
80695;DHT22;70059;42.702;23.312;2024-02-26T03:31:29;12.00;64.50
80695;DHT22;70059;42.702;23.312;2024-02-26T03:33:55;12.00;64.50
80695;DHT22;70059;42.702;23.312;2024-02-26T03:36:21;11.80;65.00
80695;DHT22;70059;42.702;23.312;2024-02-26T03:38:49;11.80;65.10
80695;DHT22;70059;42.702;23.312;2024-02-26T03:41:15;11.90;65.20
80695;DHT22;70059;42.702;23.312;2024-02-26T03:43:41;11.80;65.30
80695;DHT22;70059;42.702;23.312;2024-02-26T03:46:09;11.70;66.30
80695;DHT22;70059;42.702;23.312;2024-02-26T03:48:40;11.80;65.70
80695;DHT22;70059;42.702;23.312;2024-02-26T03:51:06;11.90;65.00
80695;DHT22;70059;42.702;23.312;2024-02-26T03:53:33;12.00;64.50
80695;DHT22;70059;42.702;23.312;2024-02-26T03:56:03;12.10;64.20
80695;DHT22;70059;42.702;23.312;2024-02-26T03:58:29;12.00;64.40
80695;DHT22;70059;42.702;23.312;2024-02-26T04:00:54;11.80;65.30
80695;DHT22;70059;42.702;23.312;2024-02-26T04:03:20;11.60;65.70
80695;DHT22;70059;42.702;23.312;2024-02-26T04:05:46;11.60;66.40
80695;DHT22;70059;42.702;23.312;2024-02-26T04:08:11;11.70;66.30
80695;DHT22;70059;42.702;23.312;2024-02-26T04:10:37;11.80;65.70
80695;DHT22;70059;42.702;23.312;2024-02-26T04:13:07;11.90;65.00
80695;DHT22;70059;42.702;23.312;2024-02-26T04:15:33;12.60;65.30
80695;DHT22;70059;42.702;23.312;2024-02-26T04:17:58;13.20;59.90
80695;DHT22;70059;42.702;23.312;2024-02-26T04:20:24;13.20;60.10
80695;DHT22;70059;42.702;23.312;2024-02-26T04:22:50;13.10;59.30
80695;DHT22;70059;42.702;23.312;2024-02-26T04:25:15;12.80;60.00
80695;DHT22;70059;42.702;23.312;2024-02-26T04:27:41;12.70;60.20
80695;DHT22;70059;42.702;23.312;2024-02-26T04:30:07;12.50;61.00
80695;DHT22;70059;42.702;23.312;2024-02-26T04:32:33;12.20;61.70
80695;DHT22;70059;42.702;23.312;2024-02-26T04:35:00;11.90;63.60
80695;DHT22;70059;42.702;23.312;2024-02-26T04:37:26;11.60;64.70
80695;DHT22;70059;42.702;23.312;2024-02-26T04:39:58;11.30;65.80
80695;DHT22;70059;42.702;23.312;2024-02-26T04:42:23;11.10;66.70
80695;DHT22;70059;42.702;23.312;2024-02-26T04:44:49;11.00;67.40
80695;DHT22;70059;42.702;23.312;2024-02-26T04:47:15;10.90;68.50
80695;DHT22;70059;42.702;23.312;2024-02-26T04:49:41;10.80;68.60
80695;DHT22;70059;42.702;23.312;2024-02-26T04:52:06;10.70;69.10
80695;DHT22;70059;42.702;23.312;2024-02-26T04:54:32;10.70;69.10
80695;DHT22;70059;42.702;23.312;2024-02-26T04:56:58;10.70;69.10
80695;DHT22;70059;42.702;23.312;2024-02-26T04:59:24;10.70;69.10
80695;DHT22;70059;42.702;23.312;2024-02-26T05:01:50;10.60;69.40
80695;DHT22;70059;42.702;23.312;2024-02-26T05:04:18;10.60;69.80
80695;DHT22;70059;42.702;23.312;2024-02-26T05:06:44;10.50;69.90
80695;DHT22;70059;42.702;23.312;2024-02-26T05:09:09;10.50;70.40
80695;DHT22;70059;42.702;23.312;2024-02-26T05:11:35;10.50;70.80
80695;DHT22;70059;42.702;23.312;2024-02-26T05:14:00;10.50;70.40
80695;DHT22;70059;42.702;23.312;2024-02-26T05:16:29;10.50;70.70
80695;DHT22;70059;42.702;23.312;2024-02-26T05:18:56;10.50;70.50
80695;DHT22;70059;42.702;23.312;2024-02-26T05:21:22;10.60;69.90
80695;DHT22;70059;42.702;23.312;2024-02-26T05:23:48;10.60;69.90
80695;DHT22;70059;42.702;23.312;2024-02-26T05:26:20;10.70;69.00
80695;DHT22;70059;42.702;23.312;2024-02-26T05:28:52;10.70;69.30
80695;DHT22;70059;42.702;23.312;2024-02-26T05:31:19;10.70;69.10
80695;DHT22;70059;42.702;23.312;2024-02-26T05:33:45;10.70;69.30
80695;DHT22;70059;42.702;23.312;2024-02-26T05:36:18;10.70;68.60
80695;DHT22;70059;42.702;23.312;2024-02-26T05:38:44;10.70;68.80
80695;DHT22;70059;42.702;23.312;2024-02-26T05:41:11;10.70;68.90
80695;DHT22;70059;42.702;23.312;2024-02-26T05:43:40;10.70;68.80
80695;DHT22;70059;42.702;23.312;2024-02-26T05:46:06;10.60;69.00
80695;DHT22;70059;42.702;23.312;2024-02-26T05:48:31;10.60;69.40
80695;DHT22;70059;42.702;23.312;2024-02-26T05:50:58;10.70;69.20
80695;DHT22;70059;42.702;23.312;2024-02-26T05:53:24;10.70;68.80
80695;DHT22;70059;42.702;23.312;2024-02-26T05:55:50;10.80;68.70
80695;DHT22;70059;42.702;23.312;2024-02-26T05:58:16;10.80;68.90
80695;DHT22;70059;42.702;23.312;2024-02-26T06:00:45;10.80;68.80
80695;DHT22;70059;42.702;23.312;2024-02-26T06:03:10;10.80;68.90
80695;DHT22;70059;42.702;23.312;2024-02-26T06:05:36;10.80;68.80
80695;DHT22;70059;42.702;23.312;2024-02-26T06:08:09;10.80;69.00
80695;DHT22;70059;42.702;23.312;2024-02-26T06:10:40;10.80;69.00
80695;DHT22;70059;42.702;23.312;2024-02-26T06:13:29;10.80;69.10
80695;DHT22;70059;42.702;23.312;2024-02-26T06:15:56;10.90;68.80
80695;DHT22;70059;42.702;23.312;2024-02-26T06:18:22;11.00;69.10
80695;DHT22;70059;42.702;23.312;2024-02-26T06:20:48;11.00;68.60
80695;DHT22;70059;42.702;23.312;2024-02-26T06:23:14;11.00;68.70
80695;DHT22;70059;42.702;23.312;2024-02-26T06:25:39;11.00;68.50
80695;DHT22;70059;42.702;23.312;2024-02-26T06:28:08;11.10;68.50
80695;DHT22;70059;42.702;23.312;2024-02-26T06:30:34;11.10;68.40
80695;DHT22;70059;42.702;23.312;2024-02-26T06:33:00;11.20;67.80
80695;DHT22;70059;42.702;23.312;2024-02-26T06:35:26;11.30;67.40
80695;DHT22;70059;42.702;23.312;2024-02-26T06:37:52;11.40;66.80
80695;DHT22;70059;42.702;23.312;2024-02-26T06:40:21;11.40;66.90
80695;DHT22;70059;42.702;23.312;2024-02-26T06:42:47;11.40;66.90
80695;DHT22;70059;42.702;23.312;2024-02-26T06:45:17;11.30;66.90
80695;DHT22;70059;42.702;23.312;2024-02-26T06:47:44;11.50;66.70
80695;DHT22;70059;42.702;23.312;2024-02-26T06:50:12;11.60;65.90
80695;DHT22;70059;42.702;23.312;2024-02-26T06:52:39;11.70;65.20
80695;DHT22;70059;42.702;23.312;2024-02-26T06:55:05;11.70;64.90
80695;DHT22;70059;42.702;23.312;2024-02-26T06:57:34;11.80;64.40
80695;DHT22;70059;42.702;23.312;2024-02-26T07:00:03;11.90;64.20
80695;DHT22;70059;42.702;23.312;2024-02-26T07:02:31;11.90;63.80
80695;DHT22;70059;42.702;23.312;2024-02-26T07:04:57;12.00;63.90
80695;DHT22;70059;42.702;23.312;2024-02-26T07:07:24;12.00;63.70
80695;DHT22;70059;42.702;23.312;2024-02-26T07:09:50;11.90;63.90
80695;DHT22;70059;42.702;23.312;2024-02-26T07:12:23;11.90;64.20
80695;DHT22;70059;42.702;23.312;2024-02-26T07:14:49;11.80;64.40
80695;DHT22;70059;42.702;23.312;2024-02-26T07:17:16;11.80;64.50
80695;DHT22;70059;42.702;23.312;2024-02-26T07:19:44;11.80;65.30
80695;DHT22;70059;42.702;23.312;2024-02-26T07:22:09;11.70;65.00
80695;DHT22;70059;42.702;23.312;2024-02-26T07:24:35;11.70;65.00
80695;DHT22;70059;42.702;23.312;2024-02-26T07:27:04;11.80;65.10
80695;DHT22;70059;42.702;23.312;2024-02-26T07:29:30;11.80;64.70
80695;DHT22;70059;42.702;23.312;2024-02-26T07:31:59;11.80;64.80
80695;DHT22;70059;42.702;23.312;2024-02-26T07:34:25;11.80;64.70
80695;DHT22;70059;42.702;23.312;2024-02-26T07:36:56;11.80;64.50
80695;DHT22;70059;42.702;23.312;2024-02-26T07:39:22;11.90;64.30
80695;DHT22;70059;42.702;23.312;2024-02-26T07:41:48;11.90;64.40
80695;DHT22;70059;42.702;23.312;2024-02-26T07:44:17;11.90;64.70
80695;DHT22;70059;42.702;23.312;2024-02-26T07:46:43;11.90;64.10
80695;DHT22;70059;42.702;23.312;2024-02-26T07:49:12;12.00;64.10
80695;DHT22;70059;42.702;23.312;2024-02-26T07:51:40;12.10;63.50
80695;DHT22;70059;42.702;23.312;2024-02-26T07:54:10;12.10;63.80
80695;DHT22;70059;42.702;23.312;2024-02-26T07:56:40;12.20;62.70
80695;DHT22;70059;42.702;23.312;2024-02-26T07:59:11;12.30;62.50
80695;DHT22;70059;42.702;23.312;2024-02-26T08:01:54;12.40;62.00
80695;DHT22;70059;42.702;23.312;2024-02-26T08:04:23;12.40;62.70
80695;DHT22;70059;42.702;23.312;2024-02-26T08:06:51;12.40;62.30
80695;DHT22;70059;42.702;23.312;2024-02-26T08:09:22;12.50;62.40
80695;DHT22;70059;42.702;23.312;2024-02-26T08:11:53;12.70;61.90
80695;DHT22;70059;42.702;23.312;2024-02-26T08:14:30;12.80;60.70
80695;DHT22;70059;42.702;23.312;2024-02-26T08:16:58;12.80;60.40
80695;DHT22;70059;42.702;23.312;2024-02-26T08:19:24;12.90;60.30
80695;DHT22;70059;42.702;23.312;2024-02-26T08:21:50;13.00;60.40
80695;DHT22;70059;42.702;23.312;2024-02-26T08:24:16;13.10;60.40
80695;DHT22;70059;42.702;23.312;2024-02-26T08:26:45;13.20;60.00
80695;DHT22;70059;42.702;23.312;2024-02-26T08:29:11;13.30;59.80
80695;DHT22;70059;42.702;23.312;2024-02-26T08:31:38;13.40;59.60
80695;DHT22;70059;42.702;23.312;2024-02-26T08:34:11;13.50;59.20
80695;DHT22;70059;42.702;23.312;2024-02-26T08:36:43;13.80;58.60
80695;DHT22;70059;42.702;23.312;2024-02-26T08:39:12;14.00;57.80
80695;DHT22;70059;42.702;23.312;2024-02-26T08:41:41;14.20;57.00
80695;DHT22;70059;42.702;23.312;2024-02-26T08:44:07;14.40;56.10
80695;DHT22;70059;42.702;23.312;2024-02-26T08:46:35;14.50;55.70
80695;DHT22;70059;42.702;23.312;2024-02-26T08:49:04;14.70;56.40
80695;DHT22;70059;42.702;23.312;2024-02-26T08:51:51;14.90;56.10
80695;DHT22;70059;42.702;23.312;2024-02-26T08:54:18;15.20;55.60
80695;DHT22;70059;42.702;23.312;2024-02-26T08:57:04;15.60;53.70
80695;DHT22;70059;42.702;23.312;2024-02-26T08:59:35;16.00;52.50
80695;DHT22;70059;42.702;23.312;2024-02-26T09:02:01;16.30;50.80
80695;DHT22;70059;42.702;23.312;2024-02-26T09:04:29;16.40;49.60
80695;DHT22;70059;42.702;23.312;2024-02-26T09:07:03;16.70;49.00
80695;DHT22;70059;42.702;23.312;2024-02-26T09:09:29;17.00;47.70
80695;DHT22;70059;42.702;23.312;2024-02-26T09:11:58;17.20;47.60
80695;DHT22;70059;42.702;23.312;2024-02-26T09:14:24;17.10;47.90
80695;DHT22;70059;42.702;23.312;2024-02-26T09:20:09;17.30;47.10
80695;DHT22;70059;42.702;23.312;2024-02-26T09:22:59;17.20;47.50
80695;DHT22;70059;42.702;23.312;2024-02-26T09:25:25;17.30;47.50
80695;DHT22;70059;42.702;23.312;2024-02-26T09:28:04;17.30;49.20
80695;DHT22;70059;42.702;23.312;2024-02-26T09:30:31;17.50;47.00
80695;DHT22;70059;42.702;23.312;2024-02-26T09:33:04;17.90;46.10
80695;DHT22;70059;42.702;23.312;2024-02-26T09:35:29;18.50;44.80
80695;DHT22;70059;42.702;23.312;2024-02-26T09:37:58;18.80;43.50
80695;DHT22;70059;42.702;23.312;2024-02-26T09:40:39;18.90;43.10
80695;DHT22;70059;42.702;23.312;2024-02-26T09:43:14;19.30;42.30
80695;DHT22;70059;42.702;23.312;2024-02-26T09:45:44;19.40;41.00
80695;DHT22;70059;42.702;23.312;2024-02-26T09:48:13;19.10;41.20
80695;DHT22;70059;42.702;23.312;2024-02-26T09:50:50;18.90;41.80
80695;DHT22;70059;42.702;23.312;2024-02-26T09:56:15;19.90;39.90
80695;DHT22;70059;42.702;23.312;2024-02-26T09:58:43;20.10;38.20
80695;DHT22;70059;42.702;23.312;2024-02-26T10:01:20;19.80;37.90
80695;DHT22;70059;42.702;23.312;2024-02-26T10:03:56;19.60;39.10
80695;DHT22;70059;42.702;23.312;2024-02-26T10:06:26;19.70;38.50
80695;DHT22;70059;42.702;23.312;2024-02-26T10:09:29;19.00;39.20
80695;DHT22;70059;42.702;23.312;2024-02-26T10:11:57;19.30;39.00
80695;DHT22;70059;42.702;23.312;2024-02-26T10:14:25;19.10;39.20
80695;DHT22;70059;42.702;23.312;2024-02-26T10:16:54;17.90;41.10
80695;DHT22;70059;42.702;23.312;2024-02-26T10:19:29;17.60;43.50
80695;DHT22;70059;42.702;23.312;2024-02-26T10:22:08;17.50;43.10
80695;DHT22;70059;42.702;23.312;2024-02-26T10:24:34;17.10;43.50
80695;DHT22;70059;42.702;23.312;2024-02-26T10:27:06;17.00;43.80
80695;DHT22;70059;42.702;23.312;2024-02-26T10:29:41;16.40;45.50
80695;DHT22;70059;42.702;23.312;2024-02-26T10:32:11;16.00;46.80
80695;DHT22;70059;42.702;23.312;2024-02-26T10:34:55;15.60;48.00
80695;DHT22;70059;42.702;23.312;2024-02-26T10:37:23;15.70;47.70
80695;DHT22;70059;42.702;23.312;2024-02-26T10:39:50;15.70;47.30
80695;DHT22;70059;42.702;23.312;2024-02-26T10:42:46;15.80;47.10
80695;DHT22;70059;42.702;23.312;2024-02-26T10:45:32;15.90;47.30
80695;DHT22;70059;42.702;23.312;2024-02-26T10:50:54;17.20;43.40
80695;DHT22;70059;42.702;23.312;2024-02-26T10:54:10;17.30;43.20
80695;DHT22;70059;42.702;23.312;2024-02-26T10:56:44;16.80;42.90
80695;DHT22;70059;42.702;23.312;2024-02-26T10:59:11;16.60;43.90
80695;DHT22;70059;42.702;23.312;2024-02-26T11:04:38;16.70;45.00
80695;DHT22;70059;42.702;23.312;2024-02-26T11:07:13;16.30;44.70
80695;DHT22;70059;42.702;23.312;2024-02-26T11:09:56;16.40;45.30
80695;DHT22;70059;42.702;23.312;2024-02-26T11:13:11;16.50;45.00
80695;DHT22;70059;42.702;23.312;2024-02-26T11:15:42;16.10;45.80
80695;DHT22;70059;42.702;23.312;2024-02-26T11:18:22;16.30;45.20
80695;DHT22;70059;42.702;23.312;2024-02-26T11:21:08;16.50;45.00
80695;DHT22;70059;42.702;23.312;2024-02-26T11:23:54;16.70;44.50
80695;DHT22;70059;42.702;23.312;2024-02-26T11:26:53;17.00;44.10
80695;DHT22;70059;42.702;23.312;2024-02-26T11:29:32;16.90;42.50
80695;DHT22;70059;42.702;23.312;2024-02-26T11:32:01;17.40;43.00
80695;DHT22;70059;42.702;23.312;2024-02-26T11:34:33;17.20;42.30
80695;DHT22;70059;42.702;23.312;2024-02-26T11:37:16;17.00;42.90
80695;DHT22;70059;42.702;23.312;2024-02-26T11:40:27;16.60;43.60
80695;DHT22;70059;42.702;23.312;2024-02-26T11:48:15;16.70;43.70
80695;DHT22;70059;42.702;23.312;2024-02-26T11:50:45;16.40;44.60
80695;DHT22;70059;42.702;23.312;2024-02-26T11:53:21;16.50;43.90
80695;DHT22;70059;42.702;23.312;2024-02-26T11:55:47;16.10;44.90
80695;DHT22;70059;42.702;23.312;2024-02-26T11:58:13;15.90;45.20
80695;DHT22;70059;42.702;23.312;2024-02-26T12:00:42;16.00;45.40
80695;DHT22;70059;42.702;23.312;2024-02-26T12:03:08;16.30;44.80
80695;DHT22;70059;42.702;23.312;2024-02-26T12:05:36;16.50;44.20
80695;DHT22;70059;42.702;23.312;2024-02-26T12:08:04;16.40;44.20
80695;DHT22;70059;42.702;23.312;2024-02-26T12:10:33;16.70;43.40
80695;DHT22;70059;42.702;23.312;2024-02-26T12:13:19;16.70;42.70
80695;DHT22;70059;42.702;23.312;2024-02-26T12:15:56;16.30;43.70
80695;DHT22;70059;42.702;23.312;2024-02-26T12:18:29;16.20;44.00
80695;DHT22;70059;42.702;23.312;2024-02-26T12:21:03;16.00;44.20
80695;DHT22;70059;42.702;23.312;2024-02-26T12:23:29;16.30;44.10
80695;DHT22;70059;42.702;23.312;2024-02-26T12:25:59;16.40;43.70
80695;DHT22;70059;42.702;23.312;2024-02-26T12:28:30;16.50;43.00
80695;DHT22;70059;42.702;23.312;2024-02-26T12:30:57;16.50;42.80
80695;DHT22;70059;42.702;23.312;2024-02-26T12:33:25;16.20;42.80
80695;DHT22;70059;42.702;23.312;2024-02-26T12:35:52;16.10;43.50
80695;DHT22;70059;42.702;23.312;2024-02-26T12:38:18;16.50;43.20
80695;DHT22;70059;42.702;23.312;2024-02-26T12:40:44;16.50;41.80
80695;DHT22;70059;42.702;23.312;2024-02-26T12:43:12;16.60;41.40
80695;DHT22;70059;42.702;23.312;2024-02-26T12:45:41;16.80;41.90
80695;DHT22;70059;42.702;23.312;2024-02-26T12:48:08;17.40;40.80
80695;DHT22;70059;42.702;23.312;2024-02-26T12:50:34;18.10;39.60
80695;DHT22;70059;42.702;23.312;2024-02-26T12:53:00;18.70;38.10
80695;DHT22;70059;42.702;23.312;2024-02-26T12:55:26;18.80;36.20
80695;DHT22;70059;42.702;23.312;2024-02-26T12:57:52;18.50;36.80
80695;DHT22;70059;42.702;23.312;2024-02-26T13:00:27;18.70;36.00
80695;DHT22;70059;42.702;23.312;2024-02-26T13:02:57;19.40;34.70
80695;DHT22;70059;42.702;23.312;2024-02-26T13:05:24;19.30;34.00
80695;DHT22;70059;42.702;23.312;2024-02-26T13:07:50;19.10;34.40
80695;DHT22;70059;42.702;23.312;2024-02-26T13:10:18;19.50;34.40
80695;DHT22;70059;42.702;23.312;2024-02-26T13:12:45;19.80;34.00
80695;DHT22;70059;42.702;23.312;2024-02-26T13:15:20;20.10;33.20
80695;DHT22;70059;42.702;23.312;2024-02-26T13:17:47;20.20;32.50
80695;DHT22;70059;42.702;23.312;2024-02-26T13:20:13;19.70;33.70
80695;DHT22;70059;42.702;23.312;2024-02-26T13:22:40;19.30;34.10
80695;DHT22;70059;42.702;23.312;2024-02-26T13:25:06;18.80;35.00
80695;DHT22;70059;42.702;23.312;2024-02-26T13:27:33;18.50;35.70
80695;DHT22;70059;42.702;23.312;2024-02-26T13:32:38;18.60;35.90
80695;DHT22;70059;42.702;23.312;2024-02-26T13:35:13;18.50;35.80
80695;DHT22;70059;42.702;23.312;2024-02-26T13:37:40;18.00;36.80
80695;DHT22;70059;42.702;23.312;2024-02-26T13:40:09;17.90;37.10
80695;DHT22;70059;42.702;23.312;2024-02-26T13:42:42;17.90;37.10
80695;DHT22;70059;42.702;23.312;2024-02-26T13:45:08;17.90;37.00
80695;DHT22;70059;42.702;23.312;2024-02-26T13:47:40;18.10;37.00
80695;DHT22;70059;42.702;23.312;2024-02-26T13:50:07;18.30;36.00
80695;DHT22;70059;42.702;23.312;2024-02-26T13:58:33;17.90;36.40
80695;DHT22;70059;42.702;23.312;2024-02-26T14:00:59;18.10;36.30
80695;DHT22;70059;42.702;23.312;2024-02-26T14:03:28;18.20;35.90
80695;DHT22;70059;42.702;23.312;2024-02-26T14:05:54;18.10;35.90
80695;DHT22;70059;42.702;23.312;2024-02-26T14:08:20;18.30;36.10
80695;DHT22;70059;42.702;23.312;2024-02-26T14:10:46;18.70;35.00
80695;DHT22;70059;42.702;23.312;2024-02-26T14:13:11;18.70;34.10
80695;DHT22;70059;42.702;23.312;2024-02-26T14:15:37;18.50;34.30
80695;DHT22;70059;42.702;23.312;2024-02-26T14:18:04;18.40;35.00
80695;DHT22;70059;42.702;23.312;2024-02-26T14:20:37;18.10;35.40
80695;DHT22;70059;42.702;23.312;2024-02-26T14:23:04;18.00;36.30
80695;DHT22;70059;42.702;23.312;2024-02-26T14:25:29;17.80;36.60
80695;DHT22;70059;42.702;23.312;2024-02-26T14:27:55;17.60;36.50
80695;DHT22;70059;42.702;23.312;2024-02-26T14:30:29;17.70;36.30
80695;DHT22;70059;42.702;23.312;2024-02-26T14:32:55;17.90;35.70
80695;DHT22;70059;42.702;23.312;2024-02-26T14:35:21;18.00;35.50
80695;DHT22;70059;42.702;23.312;2024-02-26T14:37:46;18.00;35.50
80695;DHT22;70059;42.702;23.312;2024-02-26T14:40:13;18.10;35.30
80695;DHT22;70059;42.702;23.312;2024-02-26T14:42:40;17.90;35.30
80695;DHT22;70059;42.702;23.312;2024-02-26T14:45:07;17.60;35.70
80695;DHT22;70059;42.702;23.312;2024-02-26T14:47:38;17.60;35.60
80695;DHT22;70059;42.702;23.312;2024-02-26T14:50:05;17.40;36.30
80695;DHT22;70059;42.702;23.312;2024-02-26T14:52:31;17.20;36.60
80695;DHT22;70059;42.702;23.312;2024-02-26T14:54:58;17.10;37.30
80695;DHT22;70059;42.702;23.312;2024-02-26T14:57:24;17.30;36.90
80695;DHT22;70059;42.702;23.312;2024-02-26T14:59:50;17.30;37.70
80695;DHT22;70059;42.702;23.312;2024-02-26T15:04:55;17.40;36.20
80695;DHT22;70059;42.702;23.312;2024-02-26T15:07:20;17.30;35.70
80695;DHT22;70059;42.702;23.312;2024-02-26T15:09:46;17.10;35.30
80695;DHT22;70059;42.702;23.312;2024-02-26T15:12:12;17.00;35.90
80695;DHT22;70059;42.702;23.312;2024-02-26T15:14:47;16.90;36.00
80695;DHT22;70059;42.702;23.312;2024-02-26T15:17:13;17.10;35.90
80695;DHT22;70059;42.702;23.312;2024-02-26T15:19:42;17.20;35.70
80695;DHT22;70059;42.702;23.312;2024-02-26T15:22:11;17.20;35.50
80695;DHT22;70059;42.702;23.312;2024-02-26T15:24:40;17.30;35.50
80695;DHT22;70059;42.702;23.312;2024-02-26T15:27:09;17.30;35.40
80695;DHT22;70059;42.702;23.312;2024-02-26T15:29:36;17.20;35.40
80695;DHT22;70059;42.702;23.312;2024-02-26T15:32:07;17.30;35.30
80695;DHT22;70059;42.702;23.312;2024-02-26T15:34:41;17.20;35.50
80695;DHT22;70059;42.702;23.312;2024-02-26T15:37:10;17.10;35.50
80695;DHT22;70059;42.702;23.312;2024-02-26T15:39:38;17.10;35.60
80695;DHT22;70059;42.702;23.312;2024-02-26T15:42:08;17.00;36.00
80695;DHT22;70059;42.702;23.312;2024-02-26T15:44:37;17.00;36.60
80695;DHT22;70059;42.702;23.312;2024-02-26T15:47:03;16.90;35.80
80695;DHT22;70059;42.702;23.312;2024-02-26T15:49:38;16.80;36.20
80695;DHT22;70059;42.702;23.312;2024-02-26T15:52:04;16.90;35.90
80695;DHT22;70059;42.702;23.312;2024-02-26T15:54:31;16.80;36.10